createdAt,value
2018-04-15T00:01:38.429Z,10.20
2018-04-15T00:04:04.448Z,10.10
2018-04-15T00:06:30.446Z,10.10
2018-04-15T00:08:56.449Z,10.10
2018-04-15T00:11:22.434Z,10.00
2018-04-15T00:13:48.435Z,10.00
2018-04-15T00:16:14.442Z,10.00
2018-04-15T00:18:40.425Z,10.00
2018-04-15T00:21:06.428Z,9.90
2018-04-15T00:23:32.436Z,9.90
2018-04-15T00:25:58.441Z,9.90
2018-04-15T00:28:24.430Z,9.90
2018-04-15T00:30:50.443Z,9.90
2018-04-15T00:33:16.434Z,9.90
2018-04-15T00:35:42.424Z,10.00
2018-04-15T00:38:08.448Z,9.90
2018-04-15T00:40:34.466Z,9.90
2018-04-15T00:43:00.484Z,9.90
2018-04-15T00:45:26.481Z,9.90
2018-04-15T00:47:52.467Z,9.90
2018-04-15T00:50:18.469Z,9.90
2018-04-15T00:52:44.460Z,9.90
2018-04-15T00:55:11.223Z,9.90
2018-04-15T00:57:37.263Z,9.90
2018-04-15T01:00:03.370Z,9.90
2018-04-15T01:02:29.406Z,9.90
2018-04-15T01:04:55.394Z,9.90
2018-04-15T01:07:21.398Z,9.90
2018-04-15T01:09:47.390Z,9.90
2018-04-15T01:12:14.122Z,9.90
2018-04-15T01:14:40.113Z,9.90
2018-04-15T01:17:06.090Z,9.90
2018-04-15T01:19:32.838Z,9.90
2018-04-15T01:21:59.570Z,9.80
2018-04-15T01:24:26.309Z,9.80
2018-04-15T01:26:52.293Z,9.80
2018-04-15T01:29:18.297Z,9.80
2018-04-15T01:31:44.290Z,9.80
2018-04-15T01:34:10.282Z,9.80
2018-04-15T01:36:36.285Z,9.80
2018-04-15T01:39:02.290Z,9.80
2018-04-15T01:41:28.310Z,9.80
2018-04-15T01:43:54.330Z,9.80
2018-04-15T01:46:21.804Z,9.80
2018-04-15T01:48:47.768Z,9.80
2018-04-15T01:51:13.781Z,9.80
2018-04-15T01:53:40.543Z,9.80
2018-04-15T01:56:07.272Z,9.80
2018-04-15T01:58:33.262Z,9.80
2018-04-15T02:00:59.266Z,9.80
2018-04-15T02:03:25.273Z,9.80
2018-04-15T02:05:51.270Z,9.80
2018-04-15T02:08:17.999Z,9.80
2018-04-15T02:10:43.985Z,9.80
2018-04-15T02:13:09.988Z,9.80
2018-04-15T02:15:35.982Z,9.80
2018-04-15T02:18:01.968Z,9.80
2018-04-15T02:20:27.969Z,9.80
2018-04-15T02:22:54.702Z,9.70
2018-04-15T02:25:21.429Z,9.70
2018-04-15T02:27:47.430Z,9.70
2018-04-15T02:30:13.433Z,9.60
2018-04-15T02:32:39.414Z,9.70
2018-04-15T02:35:05.401Z,9.70
2018-04-15T02:37:31.392Z,9.70
2018-04-15T02:39:57.447Z,9.70
2018-04-15T02:42:23.464Z,9.70
2018-04-15T02:44:50.199Z,9.70
2018-04-15T02:47:16.953Z,9.70
2018-04-15T02:49:43.775Z,9.70
2018-04-15T02:52:09.779Z,9.60
2018-04-15T02:54:35.762Z,9.60
2018-04-15T02:57:01.745Z,9.60
2018-04-15T02:59:27.759Z,9.60
2018-04-15T03:01:53.743Z,9.60
2018-04-15T03:04:20.502Z,9.60
2018-04-15T03:06:46.556Z,9.60
2018-04-15T03:09:12.557Z,9.60
2018-04-15T03:11:38.592Z,9.60
2018-04-15T03:14:04.610Z,9.60
2018-04-15T03:16:30.588Z,9.60
2018-04-15T03:18:56.596Z,9.60
2018-04-15T03:21:22.601Z,9.60
2018-04-15T03:23:48.630Z,9.60
2018-04-15T03:26:14.665Z,9.60
2018-04-15T03:28:40.682Z,9.60
2018-04-15T03:31:06.673Z,9.60
2018-04-15T03:33:32.670Z,9.60
2018-04-15T03:35:58.689Z,9.60
2018-04-15T03:38:24.679Z,9.60
2018-04-15T03:40:50.682Z,9.60
2018-04-15T03:43:16.723Z,9.60
2018-04-15T03:45:42.705Z,9.60
2018-04-15T03:48:08.708Z,9.60
2018-04-15T03:50:35.437Z,9.60
2018-04-15T03:53:02.178Z,9.60
2018-04-15T03:55:28.170Z,9.60
2018-04-15T03:57:54.159Z,9.60
2018-04-15T04:00:20.145Z,9.60
2018-04-15T04:02:46.139Z,9.60
2018-04-15T04:05:12.130Z,9.60
2018-04-15T04:07:38.144Z,9.60
2018-04-15T04:10:04.137Z,9.60
2018-04-15T04:12:30.126Z,9.60
2018-04-15T04:14:56.124Z,9.60
2018-04-15T04:17:45.829Z,9.60
2018-04-15T04:20:34.602Z,9.60
2018-04-15T04:23:12.846Z,9.70
2018-04-15T04:25:51.220Z,9.70
2018-04-15T04:28:17.226Z,9.80
2018-04-15T04:30:43.209Z,9.80
2018-04-15T04:33:09.193Z,9.80
2018-04-15T04:35:35.178Z,9.80
2018-04-15T04:38:01.155Z,9.80
2018-04-15T04:40:27.128Z,9.80
2018-04-15T04:42:53.122Z,9.90
2018-04-15T04:45:19.118Z,10.00
2018-04-15T04:47:45.862Z,10.30
2018-04-15T04:50:12.597Z,10.50
2018-04-15T04:52:39.317Z,10.50
2018-04-15T04:55:05.326Z,10.50
2018-04-15T04:57:31.314Z,10.60
2018-04-15T04:59:57.345Z,10.70
2018-04-15T05:02:23.360Z,10.70
2018-04-15T05:04:49.365Z,10.80
2018-04-15T05:07:15.358Z,10.80
2018-04-15T05:09:41.348Z,10.90
2018-04-15T05:12:08.081Z,11.00
2018-04-15T05:14:34.071Z,10.90
2018-04-15T05:17:00.074Z,11.00
2018-04-15T05:19:26.069Z,11.10
2018-04-15T05:21:52.071Z,11.10
2018-04-15T05:24:18.057Z,11.20
2018-04-15T05:26:44.082Z,11.30
2018-04-15T05:29:10.073Z,11.30
2018-04-15T05:31:36.076Z,11.40
2018-04-15T05:34:02.061Z,11.40
2018-04-15T05:36:28.861Z,11.50
2018-04-15T05:38:55.609Z,11.60
2018-04-15T05:41:21.623Z,11.60
2018-04-15T05:43:47.617Z,11.70
2018-04-15T05:46:13.614Z,11.70
2018-04-15T05:48:40.414Z,11.90
2018-04-15T05:51:06.401Z,11.80
2018-04-15T05:53:32.402Z,11.90
2018-04-15T05:55:58.582Z,12.00
2018-04-15T05:58:24.561Z,11.90
2018-04-15T06:00:50.539Z,12.00
2018-04-15T06:03:16.533Z,12.00
2018-04-15T06:05:42.523Z,12.00
2018-04-15T06:08:08.510Z,11.90
2018-04-15T06:10:35.235Z,11.90
2018-04-15T06:13:01.992Z,11.90
2018-04-15T06:15:28.000Z,11.90
2018-04-15T06:17:54.003Z,12.00
2018-04-15T06:20:20.001Z,12.20
2018-04-15T06:22:45.998Z,12.40
2018-04-15T06:25:12.007Z,12.50
2018-04-15T06:27:38.016Z,12.60
2018-04-15T06:30:04.023Z,12.70
2018-04-15T06:32:30.028Z,12.80
2018-04-15T06:34:56.019Z,13.00
2018-04-15T06:37:21.996Z,13.10
2018-04-15T06:39:48.054Z,13.20
2018-04-15T06:42:14.096Z,13.20
2018-04-15T06:44:40.500Z,13.20
2018-04-15T06:47:06.597Z,13.20
2018-04-15T06:49:33.358Z,13.70
2018-04-15T06:51:59.400Z,13.60
2018-04-15T06:54:25.439Z,14.00
2018-04-15T06:57:06.407Z,14.10
2018-04-15T06:59:32.397Z,14.30
2018-04-15T07:01:58.387Z,14.80
2018-04-15T07:04:24.403Z,15.40
2018-04-15T07:06:50.385Z,15.70
2018-04-15T07:09:17.151Z,15.80
2018-04-15T07:11:43.144Z,15.80
2018-04-15T07:14:09.145Z,15.70
2018-04-15T07:16:35.202Z,15.60
2018-04-15T07:19:01.203Z,15.60
2018-04-15T07:21:27.257Z,15.70
2018-04-15T07:23:53.294Z,15.90
2018-04-15T07:26:20.165Z,16.30
2018-04-15T07:28:46.907Z,16.30
2018-04-15T07:31:12.939Z,16.30
2018-04-15T07:33:39.742Z,16.10
2018-04-15T07:36:05.817Z,16.10
2018-04-15T07:38:32.598Z,16.10
2018-04-15T07:40:58.608Z,16.10
2018-04-15T07:43:24.688Z,16.40
2018-04-15T07:45:50.617Z,16.80
2018-04-15T07:48:16.603Z,17.00
2018-04-15T07:50:42.660Z,17.10
2018-04-15T07:53:08.641Z,17.30
2018-04-15T07:55:34.657Z,17.70
2018-04-15T07:58:00.646Z,18.20
2018-04-15T08:00:26.645Z,18.60
2018-04-15T08:02:52.642Z,19.40
2018-04-15T08:05:20.117Z,19.60
2018-04-15T08:07:46.174Z,19.60
2018-04-15T08:10:12.861Z,19.60
2018-04-15T08:12:38.856Z,19.60
2018-04-15T08:15:05.088Z,19.10
2018-04-15T08:17:31.346Z,19.00
2018-04-15T08:19:57.346Z,19.90
2018-04-15T08:22:23.367Z,22.50
2018-04-15T08:24:49.357Z,24.10
2018-04-15T08:27:16.101Z,24.20
2018-04-15T08:29:42.963Z,24.50
2018-04-15T08:32:08.942Z,24.50
2018-04-15T08:34:34.938Z,24.90
2018-04-15T08:37:00.920Z,24.80
2018-04-15T08:39:28.869Z,23.80
2018-04-15T08:41:54.887Z,24.00
2018-04-15T08:44:20.888Z,24.00
2018-04-15T08:46:47.627Z,23.90
2018-04-15T08:49:14.386Z,23.30
2018-04-15T08:51:40.379Z,23.20
2018-04-15T08:54:06.414Z,23.60
2018-04-15T08:56:32.418Z,23.40
2018-04-15T08:58:58.439Z,23.20
2018-04-15T09:01:24.451Z,23.30
2018-04-15T09:03:50.471Z,22.70
2018-04-15T09:06:16.462Z,22.70
2018-04-15T09:08:42.504Z,23.10
2018-04-15T09:11:09.869Z,21.70
2018-04-15T09:13:36.618Z,21.80
2018-04-15T09:16:02.660Z,21.80
2018-04-15T09:18:28.696Z,23.10
2018-04-15T09:20:54.695Z,23.80
2018-04-15T09:23:21.471Z,24.50
2018-04-15T09:25:47.506Z,24.50
2018-04-15T09:28:13.505Z,24.00
2018-04-15T09:30:45.475Z,23.40
2018-04-15T09:33:11.844Z,23.20
2018-04-15T09:35:37.970Z,22.40
2018-04-15T09:38:04.722Z,21.20
2018-04-15T09:40:30.752Z,21.10
2018-04-15T09:42:56.884Z,21.00
2018-04-15T09:45:22.932Z,21.00
2018-04-15T09:47:48.966Z,20.70
2018-04-15T09:50:15.762Z,21.80
2018-04-15T09:52:41.765Z,21.80
2018-04-15T09:55:08.543Z,25.90
2018-04-15T09:57:34.540Z,25.80
2018-04-15T10:00:00.561Z,25.00
2018-04-15T10:02:30.689Z,26.00
2018-04-15T10:04:56.786Z,26.70
2018-04-15T10:07:22.786Z,25.40
2018-04-15T10:09:48.846Z,24.90
2018-04-15T10:12:14.904Z,26.20
2018-04-15T10:14:40.998Z,28.80
2018-04-15T10:17:07.782Z,28.80
2018-04-15T10:19:33.863Z,28.80
2018-04-15T10:21:59.868Z,28.20
2018-04-15T10:24:25.943Z,28.00
2018-04-15T10:26:52.043Z,29.50
2018-04-15T10:29:18.064Z,30.20
2018-04-15T10:31:44.102Z,32.40
2018-04-15T10:34:10.181Z,33.90
2018-04-15T10:36:36.193Z,34.90
2018-04-15T10:39:03.080Z,36.80
2018-04-15T10:41:29.098Z,36.70
2018-04-15T10:43:55.109Z,37.80
2018-04-15T10:46:21.876Z,38.30
2018-04-15T10:48:48.634Z,38.50
2018-04-15T10:51:14.633Z,38.40
2018-04-15T10:53:40.654Z,37.70
2018-04-15T10:56:06.680Z,38.70
2018-04-15T10:58:32.735Z,37.80
2018-04-15T11:00:58.752Z,35.30
2018-04-15T11:03:24.750Z,36.20
2018-04-15T11:05:50.749Z,37.90
2018-04-15T11:08:16.794Z,39.40
2018-04-15T11:25:59.240Z,26.60
2018-04-15T11:31:11.736Z,25.80
2018-04-15T11:33:37.849Z,25.30
2018-04-15T11:36:03.955Z,24.80
2018-04-15T11:38:30.824Z,24.00
2018-04-15T11:40:57.659Z,23.60
2018-04-15T11:43:23.744Z,23.60
2018-04-15T11:52:32.168Z,23.00
2018-04-15T11:54:58.350Z,22.30
2018-04-15T11:57:24.410Z,22.10
2018-04-15T11:59:50.887Z,21.90
2018-04-15T12:02:17.025Z,21.80
2018-04-15T12:04:43.088Z,21.50
2018-04-15T12:07:09.193Z,20.90
2018-04-15T12:10:57.063Z,20.70
2018-04-15T12:13:23.245Z,21.10
2018-04-15T12:15:49.428Z,22.10
2018-04-15T12:18:15.608Z,23.30
2018-04-15T12:22:21.327Z,28.30
2018-04-15T12:24:47.519Z,31.90
2018-04-15T12:27:13.674Z,31.00
2018-04-15T12:29:39.883Z,29.50
2018-04-15T12:32:06.090Z,28.60
2018-04-15T12:34:32.311Z,28.50
2018-04-15T12:36:58.536Z,31.90
2018-04-15T12:39:24.703Z,35.20
2018-04-15T12:41:50.940Z,36.70
2018-04-15T12:44:17.135Z,36.00
2018-04-15T12:46:43.338Z,35.30
2018-04-15T12:49:10.277Z,31.30
2018-04-15T12:51:36.491Z,31.20
2018-04-15T12:54:02.707Z,29.60
2018-04-15T12:56:29.481Z,28.50
2018-04-15T13:00:31.381Z,26.80
2018-04-15T13:02:57.558Z,26.30
2018-04-15T13:05:24.207Z,25.50
2018-04-15T13:07:50.384Z,24.90
2018-04-15T13:10:16.528Z,24.30
2018-04-15T13:12:43.438Z,23.20
2018-04-15T13:15:09.665Z,23.20
2018-04-15T13:17:35.974Z,22.60
2018-04-15T13:20:02.139Z,21.80
2018-04-15T13:22:28.299Z,21.50
2018-04-15T13:24:54.438Z,21.30
2018-04-15T13:27:20.510Z,21.10
2018-04-15T13:29:47.175Z,21.10
2018-04-15T13:32:13.261Z,21.10
2018-04-15T13:34:40.117Z,21.30
2018-04-15T13:37:06.191Z,21.30
2018-04-15T13:39:32.361Z,21.20
2018-04-15T13:41:58.531Z,21.20
2018-04-15T13:44:24.836Z,21.40
2018-04-15T13:46:52.022Z,22.00
2018-04-15T13:49:18.138Z,22.00
2018-04-15T13:51:44.230Z,22.30
2018-04-15T13:54:10.356Z,22.80
2018-04-15T13:56:36.518Z,23.30
2018-04-15T13:59:02.668Z,23.70
2018-04-15T14:01:28.806Z,24.20
2018-04-15T14:03:55.104Z,24.60
2018-04-15T14:06:21.955Z,24.80
2018-04-15T14:08:48.026Z,24.80
2018-04-15T14:11:14.123Z,24.40
2018-04-15T14:13:40.964Z,24.10
2018-04-15T14:16:07.053Z,24.00
2018-04-15T14:18:33.506Z,23.80
2018-04-15T14:20:59.632Z,23.40
2018-04-15T14:23:25.742Z,23.30
2018-04-15T14:25:51.927Z,23.30
2018-04-15T14:28:18.061Z,23.50
2018-04-15T14:30:44.142Z,23.50
2018-04-15T14:33:10.250Z,23.40
2018-04-15T14:35:36.354Z,23.50
2018-04-15T14:38:02.467Z,23.70
2018-04-15T14:40:29.314Z,24.10
2018-04-15T14:42:55.424Z,24.00
2018-04-15T14:45:21.508Z,24.50
2018-04-15T14:47:47.626Z,25.20
2018-04-15T14:50:14.507Z,25.60
2018-04-15T14:52:40.706Z,25.60
2018-04-15T14:55:06.795Z,25.90
2018-04-15T14:57:32.912Z,26.30
2018-04-15T14:59:59.022Z,26.50
2018-04-15T15:02:25.217Z,27.50
2018-04-15T15:04:51.544Z,28.00
2018-04-15T15:07:17.698Z,27.70
2018-04-15T15:09:43.878Z,27.00
2018-04-15T15:12:09.988Z,26.60
2018-04-15T15:14:36.132Z,26.90
2018-04-15T15:17:02.367Z,26.50
2018-04-15T15:19:28.483Z,25.70
2018-04-15T15:21:54.709Z,24.70
2018-04-15T15:24:20.913Z,23.80
2018-04-15T15:26:47.808Z,22.40
2018-04-15T15:29:13.888Z,22.30
2018-04-15T15:31:40.034Z,21.90
2018-04-15T15:34:06.131Z,21.40
2018-04-15T15:36:32.227Z,21.10
2018-04-15T15:38:58.313Z,21.00
2018-04-15T15:41:25.219Z,21.00
2018-04-15T15:43:51.269Z,21.00
2018-04-15T15:46:17.468Z,21.00
2018-04-15T15:48:43.577Z,21.10
2018-04-15T15:51:09.636Z,21.20
2018-04-15T15:53:35.783Z,21.30
2018-04-15T15:56:01.875Z,21.20
2018-04-15T15:58:28.088Z,21.20
2018-04-15T16:00:54.251Z,21.30
2018-04-15T16:03:20.399Z,21.20
2018-04-15T16:05:46.580Z,21.10
2018-04-15T16:08:12.717Z,21.00
2018-04-15T16:10:39.596Z,20.70
2018-04-15T16:13:05.696Z,20.60
2018-04-15T16:15:31.840Z,20.60
2018-04-15T16:17:59.027Z,20.40
2018-04-15T16:20:25.151Z,20.30
2018-04-15T16:22:51.268Z,20.30
2018-04-15T16:25:17.356Z,20.20
2018-04-15T16:27:43.454Z,20.10
2018-04-15T16:30:09.587Z,20.10
2018-04-15T16:32:35.690Z,20.10
2018-04-15T16:35:01.789Z,20.00
2018-04-15T16:37:27.981Z,20.00
2018-04-15T16:39:54.148Z,19.90
2018-04-15T16:42:20.502Z,19.80
2018-04-15T16:44:46.749Z,19.70
2018-04-15T16:47:13.070Z,19.60
2018-04-15T16:49:39.331Z,19.60
2018-04-15T16:52:05.512Z,19.60
2018-04-15T16:54:31.686Z,19.50
2018-04-15T16:56:58.537Z,19.30
2018-04-15T16:59:24.662Z,19.30
2018-04-15T17:01:50.811Z,19.20
2018-04-15T17:04:18.843Z,19.10
2018-04-15T17:06:45.727Z,18.90
2018-04-15T17:09:13.393Z,18.70
2018-04-15T17:11:40.294Z,18.70
2018-04-15T17:14:09.034Z,18.70
2018-04-15T17:16:35.919Z,18.60
2018-04-15T17:19:02.864Z,18.60
2018-04-15T17:21:29.957Z,18.50
2018-04-15T17:23:56.797Z,18.20
2018-04-15T17:26:22.931Z,18.20
2018-04-15T17:28:49.044Z,18.10
2018-04-15T17:31:15.135Z,18.10
2018-04-15T17:33:42.066Z,17.90
2018-04-15T17:36:08.906Z,17.80
2018-04-15T17:38:35.015Z,17.80
2018-04-15T17:41:01.111Z,17.60
2018-04-15T17:43:27.203Z,17.60
2018-04-15T17:45:54.088Z,17.40
2018-04-15T17:48:20.296Z,17.40
2018-04-15T17:50:46.399Z,17.30
2018-04-15T17:53:12.481Z,17.20
2018-04-15T17:55:38.587Z,17.10
2018-04-15T17:58:04.706Z,16.90
2018-04-15T18:00:31.579Z,16.80
2018-04-15T18:02:57.705Z,16.80
2018-04-15T18:05:23.803Z,16.70
2018-04-15T18:07:49.980Z,16.60
2018-04-15T18:10:16.118Z,16.50
2018-04-15T18:12:42.247Z,16.40
2018-04-15T18:15:08.332Z,16.30
2018-04-15T18:17:34.408Z,16.20
2018-04-15T18:20:01.698Z,16.00
2018-04-15T18:22:27.841Z,15.90
2018-04-15T18:24:53.961Z,15.80
2018-04-15T18:27:20.283Z,15.70
2018-04-15T18:29:46.467Z,15.60
2018-04-15T18:32:13.357Z,15.50
2018-04-15T18:34:39.477Z,15.50
2018-04-15T18:37:07.887Z,15.40
2018-04-15T18:39:33.987Z,15.40
2018-04-15T18:42:00.080Z,15.20
2018-04-15T18:44:26.983Z,15.30
2018-04-15T18:46:53.085Z,15.10
2018-04-15T18:49:19.984Z,15.00
2018-04-15T18:51:46.367Z,14.90
2018-04-15T18:54:12.503Z,14.90
2018-04-15T18:56:38.640Z,14.80
2018-04-15T18:59:04.739Z,14.80
2018-04-15T19:01:32.825Z,14.70
2018-04-15T19:03:58.907Z,14.70
2018-04-15T19:06:25.078Z,14.70
2018-04-15T19:08:51.390Z,14.60
2018-04-15T19:11:17.496Z,14.60
2018-04-15T19:13:43.584Z,14.50
2018-04-15T19:16:10.608Z,14.40
2018-04-15T19:18:37.307Z,14.40
2018-04-15T19:21:03.558Z,14.40
2018-04-15T19:23:29.684Z,14.40
2018-04-15T19:25:55.790Z,14.40
2018-04-15T19:28:23.102Z,14.40
2018-04-15T19:30:50.120Z,14.40
2018-04-15T19:33:16.847Z,14.50
2018-04-15T19:35:43.810Z,14.40
2018-04-15T19:38:10.937Z,14.50
2018-04-15T19:40:37.100Z,14.50
2018-04-15T19:43:03.214Z,14.50
2018-04-15T19:45:30.020Z,14.60
2018-04-15T19:47:56.195Z,14.50
2018-04-15T19:50:22.320Z,14.50
2018-04-15T19:52:49.147Z,14.50
2018-04-15T19:55:15.998Z,14.50
2018-04-15T19:57:42.087Z,14.50
2018-04-15T20:00:08.201Z,14.50
2018-04-15T20:02:34.291Z,14.50
2018-04-15T20:05:00.411Z,14.50
2018-04-15T20:07:26.506Z,14.50
2018-04-15T20:09:52.602Z,14.50
2018-04-15T20:12:19.429Z,14.40
2018-04-15T20:14:46.343Z,14.50
2018-04-15T20:17:12.378Z,14.40
2018-04-15T20:19:38.519Z,14.50
2018-04-15T20:22:04.690Z,14.50
2018-04-15T20:24:30.841Z,14.50
2018-04-15T20:26:56.931Z,14.50
2018-04-15T20:29:23.098Z,14.50
2018-04-15T20:31:49.269Z,14.40
2018-04-15T20:34:15.422Z,14.50
2018-04-15T20:36:41.529Z,14.50
2018-04-15T20:39:07.596Z,14.60
2018-04-15T20:41:33.682Z,14.70
2018-04-15T20:43:59.792Z,14.80
2018-04-15T20:46:26.000Z,14.70
2018-04-15T20:48:52.116Z,14.70
2018-04-15T20:51:18.261Z,14.70
2018-04-15T20:53:44.362Z,14.70
2018-04-15T20:56:10.488Z,14.70
2018-04-15T20:58:36.587Z,14.70
2018-04-15T21:01:02.675Z,14.70
2018-04-15T21:03:28.784Z,14.60
2018-04-15T21:05:56.012Z,14.60
2018-04-15T21:08:23.556Z,14.50
2018-04-15T21:10:49.748Z,14.50
2018-04-15T21:13:15.849Z,14.50
2018-04-15T21:15:41.954Z,14.50
2018-04-15T21:18:08.096Z,14.50
2018-04-15T21:20:34.209Z,14.50
2018-04-15T21:23:00.283Z,14.40
2018-04-15T21:25:26.399Z,14.40
2018-04-15T21:27:52.474Z,14.40
2018-04-15T21:30:18.568Z,14.30
2018-04-15T21:32:44.668Z,14.30
2018-04-15T21:35:10.781Z,14.30
2018-04-15T21:37:36.868Z,14.20
2018-04-15T21:40:02.967Z,14.30
2018-04-15T21:42:29.079Z,14.20
2018-04-15T21:44:55.168Z,14.20
2018-04-15T21:47:21.270Z,14.10
2018-04-15T21:49:47.346Z,14.10
2018-04-15T21:52:13.543Z,14.10
2018-04-15T21:54:39.614Z,14.00
2018-04-15T21:57:05.791Z,13.90
2018-04-15T21:59:31.915Z,13.80
2018-04-15T22:01:58.002Z,13.70
2018-04-15T22:04:24.105Z,13.60
2018-04-15T22:06:50.188Z,13.40
2018-04-15T22:09:16.307Z,13.30
2018-04-15T22:12:00.790Z,13.10
2018-04-15T22:14:26.890Z,13.10
2018-04-15T22:16:53.010Z,12.90
2018-04-15T22:19:19.838Z,12.70
2018-04-15T22:21:46.899Z,12.70
2018-04-15T22:24:13.040Z,12.60
2018-04-15T22:26:39.149Z,12.50
2018-04-15T22:29:05.294Z,12.30
2018-04-15T22:34:24.753Z,12.20
2018-04-15T22:36:50.879Z,12.10
2018-04-15T22:39:16.975Z,12.10
2018-04-15T22:41:43.811Z,12.00
2018-04-15T22:44:10.642Z,12.10
2018-04-15T22:46:36.734Z,12.00
2018-04-15T22:49:02.816Z,12.20
2018-04-15T22:51:28.943Z,12.30
2018-04-15T22:53:55.749Z,12.50
2018-04-15T22:56:21.887Z,12.40
2018-04-15T22:58:47.980Z,12.50
2018-04-15T23:01:14.083Z,12.50
2018-04-15T23:03:40.155Z,12.50
2018-04-15T23:06:06.267Z,12.50
2018-04-15T23:08:33.071Z,12.60
2018-04-15T23:10:59.176Z,12.60
2018-04-15T23:13:25.268Z,12.60
2018-04-15T23:15:52.136Z,12.80
2018-04-15T23:18:18.272Z,12.70
2018-04-15T23:20:44.361Z,12.80
2018-04-15T23:23:10.442Z,12.80
2018-04-15T23:25:36.532Z,12.90
2018-04-15T23:28:02.645Z,12.90
2018-04-15T23:30:28.763Z,12.90
2018-04-15T23:32:54.851Z,12.90
2018-04-15T23:35:20.939Z,12.90
2018-04-15T23:37:47.021Z,12.90
2018-04-15T23:40:13.099Z,12.90
2018-04-15T23:42:39.249Z,12.90
2018-04-15T23:45:06.109Z,13.00
2018-04-15T23:47:32.214Z,13.00
2018-04-15T23:49:58.310Z,13.10
2018-04-15T23:52:24.423Z,13.10
2018-04-15T23:54:50.564Z,13.10
2018-04-15T23:57:16.659Z,13.20
2018-04-15T23:59:42.736Z,13.20
